Time;durP1;ratioP1;P1;durP2;ratioP2;P2;SDS_P1;SDS_P2;PMS_P1;PMS_P2;Temp;Humidity;BMP_temperature;BMP_pressure;BME280_temperature;BME280_humidity;BME280_pressure;Samples;Min_cycle;Max_cycle;Signal;HPM_P1;HPM_P2
2022/09/25 00:00:53;;;;;;;2.17;0.60;;;12.40;99.90;;;;;;5072863;28;20221;-84
2022/09/25 00:03:20;;;;;;;1.40;1.03;;;12.40;99.90;;;;;;5075477;28;20398;-86
2022/09/25 00:05:46;;;;;;;1.30;0.90;;;12.40;99.90;;;;;;5059158;28;20213;-86
2022/09/25 00:08:13;;;;;;;1.97;1.67;;;12.30;99.90;;;;;;5073856;28;20270;-85
2022/09/25 00:10:45;;;;;;;2.43;0.53;;;12.30;99.90;;;;;;5073058;28;20297;-86
2022/09/25 00:13:11;;;;;;;0.83;0.40;;;12.30;99.90;;;;;;5075732;28;20228;-84
2022/09/25 00:15:37;;;;;;;0.40;0.40;;;12.30;99.90;;;;;;5071713;28;20246;-86
2022/09/25 00:18:03;;;;;;;0.43;0.43;;;12.30;99.90;;;;;;5075389;28;20295;-86
2022/09/25 00:20:29;;;;;;;2.30;0.47;;;12.40;99.90;;;;;;5055048;28;20300;-84
2022/09/25 00:22:55;;;;;;;4.00;0.53;;;12.40;99.90;;;;;;5075421;28;20189;-87
2022/09/25 00:25:21;;;;;;;2.43;0.70;;;12.30;99.90;;;;;;5075611;28;20205;-84
2022/09/25 00:27:49;;;;;;;1.70;1.10;;;12.30;99.90;;;;;;5076029;28;20629;-84
2022/09/25 00:30:15;;;;;;;0.50;0.50;;;12.30;99.90;;;;;;5054053;28;20257;-84
2022/09/25 00:32:41;;;;;;;0.53;0.53;;;12.20;99.90;;;;;;5072506;28;20227;-84
2022/09/25 00:35:07;;;;;;;3.17;1.00;;;12.20;99.90;;;;;;5040222;28;20193;-84
2022/09/25 00:37:34;;;;;;;0.60;0.60;;;12.20;99.90;;;;;;5056508;28;20209;-86
2022/09/25 00:40:00;;;;;;;3.20;0.63;;;12.10;99.90;;;;;;5074440;28;20324;-85
2022/09/25 00:42:26;;;;;;;3.83;0.93;;;12.10;99.90;;;;;;5056705;28;20753;-86
2022/09/25 00:45:06;;;;;;;0.30;0.30;;;12.10;99.90;;;;;;5073360;28;20543;-86
2022/09/25 00:47:44;;;;;;;2.93;0.57;;;12.10;99.90;;;;;;5071159;28;20211;-87
2022/09/25 00:50:32;;;;;;;2.40;1.27;;;12.20;99.90;;;;;;5072131;28;20219;-86
2022/09/25 00:53:04;;;;;;;0.57;0.30;;;12.20;99.90;;;;;;5090199;28;20635;-85
2022/09/25 00:55:32;;;;;;;9.13;0.77;;;12.30;99.90;;;;;;5072226;28;20223;-86
2022/09/25 00:58:00;;;;;;;3.63;1.10;;;12.40;99.90;;;;;;5072631;28;20205;-86
2022/09/25 01:00:26;;;;;;;2.23;0.70;;;12.40;99.90;;;;;;5073376;28;20696;-84
2022/09/25 01:02:54;;;;;;;0.30;0.30;;;12.50;99.90;;;;;;5074308;28;20309;-86
2022/09/25 01:05:24;;;;;;;0.27;0.27;;;12.50;99.90;;;;;;5054832;28;20209;-84
2022/09/25 01:07:52;;;;;;;0.27;0.27;;;12.60;99.90;;;;;;5072458;28;20608;-84
2022/09/25 01:10:19;;;;;;;3.23;0.87;;;12.70;99.90;;;;;;5072213;28;20291;-86
2022/09/25 01:12:47;;;;;;;0.47;0.43;;;12.70;99.90;;;;;;5073530;28;20618;-86
2022/09/25 01:15:15;;;;;;;0.20;0.20;;;12.60;99.90;;;;;;5056472;28;20227;-85
2022/09/25 01:18:02;;;;;;;0.37;0.37;;;12.60;99.90;;;;;;5072444;28;20583;-84
2022/09/25 01:20:40;;;;;;;3.40;0.67;;;12.60;99.90;;;;;;5072276;28;20225;-84
2022/09/25 01:23:36;;;;;;;7.60;0.60;;;12.60;99.90;;;;;;5072798;28;20327;-87
2022/09/25 01:26:35;;;;;;;1.17;0.43;;;12.50;99.90;;;;;;5070741;28;20189;-85
2022/09/25 01:29:29;;;;;;;6.87;1.47;;;12.40;99.90;;;;;;5074805;28;20547;-85
2022/09/25 01:32:08;;;;;;;0.40;0.40;;;12.30;99.90;;;;;;5069988;28;20260;-85
2022/09/25 01:34:46;;;;;;;1.50;0.57;;;12.20;99.90;;;;;;5070942;28;20538;-86
2022/09/25 01:37:26;;;;;;;3.63;0.70;;;12.20;99.90;;;;;;5072577;28;20223;-85
2022/09/25 01:40:06;;;;;;;1.90;0.50;;;12.20;99.90;;;;;;5071715;28;20227;-85
2022/09/25 01:43:00;;;;;;;4.10;0.40;;;12.20;99.90;;;;;;5070039;28;20269;-84
2022/09/25 01:45:39;;;;;;;0.77;0.50;;;12.20;99.90;;;;;;5069891;28;20766;-85
2022/09/25 01:48:09;;;;;;;4.40;0.80;;;12.30;99.90;;;;;;5072380;28;20212;-85
2022/09/25 01:50:43;;;;;;;0.20;0.20;;;12.30;99.90;;;;;;5090532;28;20706;-85
2022/09/25 01:53:15;;;;;;;5.70;0.60;;;12.40;99.90;;;;;;5074743;28;20577;-86
2022/09/25 01:55:49;;;;;;;0.60;0.60;;;12.40;99.90;;;;;;5089762;28;20176;-84
2022/09/25 01:58:27;;;;;;;0.63;0.63;;;12.50;99.90;;;;;;5073753;28;20216;-86
2022/09/25 02:01:01;;;;;;;0.20;0.20;;;12.50;99.90;;;;;;5071331;28;20571;-86
2022/09/25 02:03:33;;;;;;;0.80;0.47;;;12.40;99.90;;;;;;5072372;28;20724;-85
2022/09/25 02:06:06;;;;;;;0.30;0.30;;;12.30;99.90;;;;;;5070409;28;20209;-87
2022/09/25 02:08:43;;;;;;;1.60;0.60;;;12.30;99.90;;;;;;5075031;28;20267;-86
2022/09/25 02:11:09;;;;;;;0.40;0.40;;;12.20;99.90;;;;;;5069813;28;20755;-85
2022/09/25 02:14:01;;;;;;;2.67;0.40;;;12.20;99.90;;;;;;5071468;28;20291;-87
2022/09/25 02:16:34;;;;;;;1.20;1.10;;;12.20;99.90;;;;;;5071778;28;20210;-85
2022/09/25 02:22:12;;;;;;;4.23;0.47;;;12.30;99.90;;;;;;5069658;28;20681;-86
2022/09/25 02:24:56;;;;;;;0.47;0.43;;;12.40;99.90;;;;;;5069541;28;20580;-86
2022/09/25 02:27:25;;;;;;;2.00;0.90;;;12.40;99.90;;;;;;5071026;28;20278;-85
2022/09/25 02:29:51;;;;;;;0.30;0.30;;;12.40;99.90;;;;;;5070313;28;20236;-85
2022/09/25 02:32:21;;;;;;;0.50;0.50;;;12.40;99.90;;;;;;5069536;28;20217;-85
2022/09/25 02:34:47;;;;;;;0.40;0.40;;;12.50;99.90;;;;;;5071544;28;20185;-85
2022/09/25 02:37:15;;;;;;;0.57;0.50;;;12.50;99.90;;;;;;5073535;28;20215;-85
2022/09/25 02:39:46;;;;;;;14.07;0.70;;;12.40;99.90;;;;;;5077236;28;20228;-85
2022/09/25 02:42:37;;;;;;;1.07;1.07;;;12.30;99.90;;;;;;5075435;28;20217;-83
2022/09/25 02:45:43;;;;;;;0.80;0.50;;;12.20;99.90;;;;;;5074390;28;20223;-84
2022/09/25 02:48:51;;;;;;;1.23;0.60;;;12.10;99.90;;;;;;5054679;28;20225;-83
2022/09/25 02:51:39;;;;;;;2.33;0.40;;;12.00;99.90;;;;;;5064999;28;20393;-83
2022/09/25 02:54:11;;;;;;;0.30;0.30;;;12.10;99.90;;;;;;5076859;28;20268;-85
2022/09/25 02:56:55;;;;;;;0.30;0.30;;;12.10;99.90;;;;;;5072173;28;20275;-84
2022/09/25 02:59:31;;;;;;;2.43;0.40;;;12.00;99.90;;;;;;5076183;28;20251;-86
2022/09/25 03:01:58;;;;;;;3.67;0.70;;;11.90;99.90;;;;;;5095071;28;20209;-85
2022/09/25 03:04:26;;;;;;;0.50;0.43;;;11.90;99.90;;;;;;5075088;28;20193;-84
2022/09/25 03:06:52;;;;;;;4.93;0.60;;;12.00;99.90;;;;;;5074880;28;20261;-84
2022/09/25 03:09:21;;;;;;;4.20;1.60;;;12.00;99.90;;;;;;5044523;28;20244;-84
2022/09/25 03:11:47;;;;;;;0.40;0.40;;;12.00;99.90;;;;;;5074370;28;20224;-85
2022/09/25 03:14:12;;;;;;;0.50;0.50;;;12.00;99.90;;;;;;5056240;28;20220;-86
2022/09/25 03:16:46;;;;;;;0.50;0.40;;;12.00;99.90;;;;;;5075574;28;20192;-85
2022/09/25 03:19:13;;;;;;;4.63;0.90;;;12.00;99.90;;;;;;5075672;28;20527;-85
2022/09/25 03:21:39;;;;;;;0.87;0.60;;;12.00;99.90;;;;;;5059303;28;20553;-85
2022/09/25 03:24:05;;;;;;;0.40;0.40;;;12.00;99.90;;;;;;5073603;28;20220;-85
2022/09/25 03:26:30;;;;;;;6.13;1.20;;;11.90;99.90;;;;;;5056413;28;20238;-84
2022/09/25 03:29:01;;;;;;;0.30;0.30;;;12.00;99.90;;;;;;5056609;28;20192;-83
2022/09/25 03:31:30;;;;;;;1.23;1.10;;;12.00;99.90;;;;;;5058966;28;20715;-84
2022/09/25 03:33:56;;;;;;;2.93;1.20;;;12.00;99.90;;;;;;5072753;28;20610;-84
2022/09/25 03:36:25;;;;;;;4.97;0.83;;;12.10;99.90;;;;;;5077657;28;20744;-84
2022/09/25 03:38:56;;;;;;;0.80;0.70;;;12.10;99.90;;;;;;5077148;28;20237;-84
2022/09/25 03:41:22;;;;;;;0.43;0.43;;;12.10;99.90;;;;;;5071462;28;20313;-85
2022/09/25 03:43:50;;;;;;;1.07;0.30;;;12.10;99.90;;;;;;5043418;28;20197;-85
2022/09/25 03:46:18;;;;;;;5.40;0.50;;;12.10;99.90;;;;;;5073973;28;20348;-85
2022/09/25 03:48:45;;;;;;;5.30;0.70;;;12.10;99.90;;;;;;5075317;28;20248;-85
2022/09/25 03:51:11;;;;;;;0.93;0.50;;;12.20;99.90;;;;;;5059736;28;20224;-85
2022/09/25 03:53:38;;;;;;;1.30;1.20;;;12.10;99.90;;;;;;5071877;28;20213;-86
2022/09/25 03:56:07;;;;;;;0.60;0.60;;;12.20;99.90;;;;;;5075036;28;20677;-87
2022/09/25 03:58:33;;;;;;;1.50;0.77;;;12.20;99.90;;;;;;5073947;28;20664;-84
2022/09/25 04:01:00;;;;;;;4.30;1.20;;;12.10;99.90;;;;;;5073523;28;20217;-84
2022/09/25 04:03:27;;;;;;;0.90;0.60;;;12.10;99.90;;;;;;5076324;28;20749;-82
2022/09/25 04:05:57;;;;;;;2.83;0.90;;;12.20;99.90;;;;;;5075525;28;20685;-84
2022/09/25 04:08:25;;;;;;;1.07;0.90;;;12.10;99.90;;;;;;5073239;28;20680;-84
2022/09/25 04:10:58;;;;;;;1.20;0.83;;;12.10;99.90;;;;;;5075472;28;20207;-83
2022/09/25 04:13:25;;;;;;;0.70;0.53;;;12.10;99.90;;;;;;5076326;28;20197;-83
2022/09/25 04:15:51;;;;;;;0.60;0.60;;;12.10;99.90;;;;;;5058354;28;20262;-84
2022/09/25 04:18:17;;;;;;;0.20;0.20;;;12.10;99.90;;;;;;5072525;28;20216;-85
2022/09/25 04:20:42;;;;;;;3.93;1.07;;;12.00;99.90;;;;;;5057195;28;20459;-85
2022/09/25 04:23:08;;;;;;;1.70;0.93;;;12.10;99.90;;;;;;5072132;28;20196;-84
2022/09/25 04:25:34;;;;;;;0.87;0.70;;;12.10;99.90;;;;;;5074693;28;20551;-84
2022/09/25 04:28:00;;;;;;;1.90;0.60;;;12.20;99.90;;;;;;5075216;28;20578;-83
2022/09/25 04:30:27;;;;;;;0.73;0.40;;;12.20;99.90;;;;;;5070180;28;20232;-83
2022/09/25 04:35:37;;;;;;;5.67;1.00;;;12.30;99.90;;;;;;5071967;28;20299;-84
2022/09/25 04:38:03;;;;;;;0.83;0.83;;;12.30;99.90;;;;;;5070511;28;20494;-83
2022/09/25 04:40:30;;;;;;;2.30;0.90;;;12.30;99.90;;;;;;5074315;28;20415;-85
2022/09/25 04:43:00;;;;;;;0.93;0.50;;;12.40;99.90;;;;;;5055499;28;20212;-83
2022/09/25 04:45:28;;;;;;;0.90;0.73;;;12.30;99.90;;;;;;5072357;28;20221;-84
2022/09/25 04:47:55;;;;;;;0.30;0.30;;;12.30;99.90;;;;;;5069876;28;20237;-85
2022/09/25 04:50:21;;;;;;;1.80;0.87;;;12.20;99.90;;;;;;5074108;28;20790;-85
2022/09/25 04:52:50;;;;;;;3.80;0.77;;;12.20;99.90;;;;;;5076900;28;20189;-83
2022/09/25 04:55:20;;;;;;;1.87;0.87;;;12.20;99.90;;;;;;5059394;28;20307;-84
2022/09/25 04:57:53;;;;;;;1.87;1.30;;;12.20;99.90;;;;;;5073018;28;20262;-85
2022/09/25 05:00:20;;;;;;;0.97;0.50;;;12.10;99.90;;;;;;5054807;28;20611;-84
2022/09/25 05:02:46;;;;;;;0.57;0.57;;;12.10;99.90;;;;;;5057810;28;20217;-84
2022/09/25 05:05:13;;;;;;;1.70;0.77;;;12.10;99.90;;;;;;5071892;28;20668;-84
2022/09/25 05:07:39;;;;;;;0.73;0.43;;;12.00;99.90;;;;;;5072071;28;20193;-85
2022/09/25 05:10:07;;;;;;;0.83;0.67;;;12.00;99.90;;;;;;5071003;28;20247;-85
2022/09/25 05:12:33;;;;;;;2.87;0.43;;;11.90;99.90;;;;;;5052618;28;20239;-85
2022/09/25 05:14:59;;;;;;;0.77;0.70;;;11.80;99.90;;;;;;5069135;28;20247;-85
2022/09/25 05:17:25;;;;;;;0.60;0.60;;;11.70;99.90;;;;;;5069780;28;20208;-84
2022/09/25 05:19:50;;;;;;;0.50;0.50;;;11.70;99.90;;;;;;5072600;28;20197;-84
2022/09/25 05:22:16;;;;;;;2.10;1.90;;;11.60;99.90;;;;;;5073167;28;20666;-84
2022/09/25 05:24:42;;;;;;;0.60;0.50;;;11.60;99.90;;;;;;5054779;28;20220;-85
2022/09/25 05:27:08;;;;;;;1.83;0.60;;;11.50;99.90;;;;;;5074014;28;20225;-85
2022/09/25 05:29:33;;;;;;;1.50;0.43;;;11.50;99.90;;;;;;5036866;28;20240;-85
2022/09/25 05:31:59;;;;;;;0.40;0.40;;;11.40;99.90;;;;;;5055293;28;20670;-85
2022/09/25 05:34:26;;;;;;;2.50;0.70;;;11.40;99.90;;;;;;5073217;28;20238;-85
2022/09/25 05:36:51;;;;;;;0.23;0.23;;;11.30;99.90;;;;;;5054826;28;20605;-85
2022/09/25 05:39:17;;;;;;;2.40;0.70;;;11.40;99.90;;;;;;5036009;28;20314;-85
2022/09/25 05:41:43;;;;;;;2.27;0.80;;;11.40;99.90;;;;;;5056141;28;20616;-85
2022/09/25 05:44:09;;;;;;;1.90;0.47;;;11.60;99.90;;;;;;5073334;28;20193;-84
2022/09/25 05:46:36;;;;;;;1.20;0.83;;;11.70;99.90;;;;;;5071028;28;20650;-85
2022/09/25 05:49:02;;;;;;;1.20;0.63;;;11.70;99.90;;;;;;5054297;28;20281;-84
2022/09/25 05:51:28;;;;;;;0.40;0.40;;;11.60;99.90;;;;;;5071294;28;20503;-86
2022/09/25 05:53:54;;;;;;;0.60;0.60;;;11.60;99.90;;;;;;5072662;28;20304;-84
2022/09/25 05:56:23;;;;;;;2.60;0.83;;;11.50;99.90;;;;;;5069451;28;20212;-84
2022/09/25 05:58:48;;;;;;;0.20;0.20;;;11.50;99.90;;;;;;5072784;28;20191;-86
2022/09/25 06:01:14;;;;;;;1.03;0.53;;;11.50;99.90;;;;;;5052372;28;20217;-85
2022/09/25 06:03:41;;;;;;;1.50;0.50;;;11.50;99.90;;;;;;5070186;28;20896;-85
2022/09/25 06:06:06;;;;;;;0.50;0.50;;;11.50;99.90;;;;;;5068362;28;20690;-85
2022/09/25 06:08:34;;;;;;;2.27;1.53;;;11.50;99.90;;;;;;5056336;28;20212;-84
2022/09/25 06:11:01;;;;;;;0.30;0.30;;;11.50;99.90;;;;;;5071462;28;20635;-84
2022/09/25 06:13:28;;;;;;;2.83;0.60;;;11.60;99.90;;;;;;5071274;28;20193;-85
2022/09/25 06:15:55;;;;;;;0.93;0.37;;;11.60;99.90;;;;;;5055252;28;20542;-84
2022/09/25 06:18:23;;;;;;;1.83;0.77;;;11.70;99.90;;;;;;5055362;28;20236;-83
2022/09/25 06:20:50;;;;;;;1.17;0.97;;;11.80;99.90;;;;;;5054324;28;20220;-85
2022/09/25 06:23:16;;;;;;;1.17;0.47;;;11.90;99.90;;;;;;5078679;28;20217;-85
2022/09/25 06:25:42;;;;;;;2.80;0.93;;;12.10;99.90;;;;;;5073628;28;20196;-84
2022/09/25 06:28:09;;;;;;;0.93;0.70;;;12.50;99.90;;;;;;5070734;28;20220;-84
2022/09/25 06:30:37;;;;;;;0.83;0.60;;;13.50;99.90;;;;;;5058219;28;20224;-86
2022/09/25 06:33:08;;;;;;;1.67;0.97;;;14.90;99.90;;;;;;5072523;28;20236;-84
2022/09/25 06:35:39;;;;;;;3.53;1.07;;;17.10;99.90;;;;;;5075561;28;20420;-84
2022/09/25 06:38:05;;;;;;;1.37;0.50;;;19.10;99.90;;;;;;5069291;28;20208;-85
2022/09/25 06:40:31;;;;;;;3.30;0.80;;;21.10;99.90;;;;;;5053628;28;20654;-87
2022/09/25 06:43:00;;;;;;;1.33;0.40;;;22.80;99.90;;;;;;5053941;28;20643;-84
2022/09/25 06:45:31;;;;;;;2.83;0.70;;;23.40;99.90;;;;;;5070597;28;20220;-86
2022/09/25 06:48:09;;;;;;;0.57;0.53;;;23.00;99.90;;;;;;5054800;28;20244;-84
2022/09/25 06:50:37;;;;;;;2.20;0.60;;;23.80;99.90;;;;;;5071237;28;20220;-85
2022/09/25 06:53:03;;;;;;;1.33;0.70;;;25.10;99.90;;;;;;5073519;28;20194;-84
2022/09/25 06:55:31;;;;;;;1.80;1.33;;;25.80;99.90;;;;;;5074049;28;20196;-85
2022/09/25 06:57:57;;;;;;;1.03;0.70;;;26.60;99.90;;;;;;5037475;28;20221;-84
2022/09/25 07:00:23;;;;;;;2.47;0.80;;;27.30;99.90;;;;;;5066093;28;20228;-85
2022/09/25 07:05:33;;;;;;;2.30;1.00;;;28.00;99.90;;;;;;5052178;28;20935;-86
2022/09/25 07:07:59;;;;;;;2.00;0.90;;;28.40;99.90;;;;;;5048038;28;20213;-85
2022/09/25 07:10:25;;;;;;;1.67;1.03;;;28.80;99.90;;;;;;5067549;28;20323;-84
2022/09/25 07:12:51;;;;;;;1.03;0.77;;;29.00;99.90;;;;;;5051564;28;20220;-84
2022/09/25 07:15:17;;;;;;;3.57;0.90;;;28.30;99.90;;;;;;5053399;28;20214;-84
2022/09/25 07:17:44;;;;;;;1.00;0.67;;;26.90;99.90;;;;;;5064872;28;20224;-84
2022/09/25 07:20:12;;;;;;;2.13;0.67;;;25.50;99.90;;;;;;5066063;28;20574;-84
2022/09/25 07:22:39;;;;;;;1.70;0.90;;;24.70;99.90;;;;;;5050230;28;20185;-86
2022/09/25 07:25:06;;;;;;;1.90;0.70;;;25.00;99.90;;;;;;5067472;28;20303;-84
2022/09/25 07:27:32;;;;;;;2.08;0.50;;;26.60;99.90;;;;;;5070560;28;20216;-85
2022/09/25 07:29:58;;;;;;;4.57;0.80;;;27.60;99.90;;;;;;5069201;28;20241;-85
2022/09/25 07:32:23;;;;;;;0.50;0.32;;;29.30;99.90;;;;;;5069818;28;20208;-86
2022/09/25 07:34:49;;;;;;;6.32;0.88;;;30.60;99.90;;;;;;5072708;28;20605;-86
2022/09/25 07:37:16;;;;;;;2.58;0.80;;;28.10;99.90;;;;;;5048530;28;20295;-83
2022/09/25 07:39:42;;;;;;;1.95;0.60;;;21.00;99.90;;;;;;5056569;28;20632;-84
2022/09/25 07:42:08;;;;;;;1.55;0.70;;;17.90;99.90;;;;;;5054190;28;20303;-85
2022/09/25 07:44:34;;;;;;;0.47;0.47;;;16.70;99.90;;;;;;5057080;28;20921;-84
2022/09/25 07:47:01;;;;;;;0.63;0.63;;;16.10;99.90;;;;;;5070500;28;20185;-84
2022/09/25 07:49:28;;;;;;;2.80;0.60;;;16.40;99.90;;;;;;5073224;28;20220;-90
2022/09/25 07:51:53;;;;;;;1.27;0.37;;;17.50;99.90;;;;;;5038900;28;20572;-84
2022/09/25 07:54:19;;;;;;;0.73;0.63;;;18.80;99.90;;;;;;5056772;28;20212;-83
2022/09/25 07:56:45;;;;;;;0.77;0.50;;;19.20;99.90;;;;;;5036818;28;20608;-83
2022/09/25 07:59:11;;;;;;;1.00;0.57;;;19.90;99.90;;;;;;5053401;28;20353;-83
2022/09/25 08:01:37;;;;;;;0.87;0.50;;;20.50;99.90;;;;;;5070135;28;20651;-84
2022/09/25 08:04:03;;;;;;;0.50;0.50;;;20.80;99.90;;;;;;5070510;28;20327;-84
2022/09/25 08:06:29;;;;;;;0.80;0.53;;;20.40;99.90;;;;;;5070483;28;20212;-87
2022/09/25 08:08:54;;;;;;;1.13;0.60;;;19.40;99.90;;;;;;5065173;28;20737;-83
2022/09/25 08:11:22;;;;;;;0.53;0.37;;;18.80;99.90;;;;;;5053103;28;20224;-85
2022/09/25 08:13:48;;;;;;;1.63;0.57;;;18.70;99.90;;;;;;5054322;28;20193;-82
2022/09/25 08:16:16;;;;;;;1.13;0.60;;;19.60;99.90;;;;;;5069449;28;20224;-84
2022/09/25 08:18:44;;;;;;;0.43;0.35;;;20.70;99.90;;;;;;5073045;28;20243;-84
2022/09/25 08:21:13;;;;;;;1.60;0.77;;;21.20;99.90;;;;;;5070534;28;20752;-84
2022/09/25 08:23:43;;;;;;;1.17;0.50;;;21.70;99.90;;;;;;5050025;28;20225;-86
2022/09/25 08:26:09;;;;;;;1.33;0.60;;;22.10;99.90;;;;;;5083646;28;20615;-85
2022/09/25 08:28:35;;;;;;;2.65;0.68;;;21.60;99.90;;;;;;5071269;28;20279;-83
2022/09/25 08:31:02;;;;;;;1.27;0.50;;;22.00;99.90;;;;;;5049354;28;20233;-86
2022/09/25 08:33:29;;;;;;;1.20;0.55;;;22.50;99.90;;;;;;5087768;28;20221;-85
2022/09/25 08:35:58;;;;;;;0.50;0.50;;;21.40;99.90;;;;;;5052894;28;20295;-84
2022/09/25 08:38:25;;;;;;;0.50;0.40;;;19.80;99.90;;;;;;5068518;28;20249;-84
2022/09/25 08:41:02;;;;;;;1.43;0.30;;;19.50;99.90;;;;;;5072113;28;20189;-84
2022/09/25 08:43:30;;;;;;;1.17;0.50;;;18.70;99.90;;;;;;5072245;28;20883;-85
2022/09/25 08:49:05;;;;;;;0.50;0.50;;;17.80;99.90;;;;;;5073061;28;20213;-84
2022/09/25 08:51:36;;;;;;;1.90;0.40;;;18.10;99.90;;;;;;5073057;28;20317;-82
2022/09/25 08:54:03;;;;;;;0.50;0.50;;;18.70;99.90;;;;;;5072268;28;20220;-84
2022/09/25 08:56:32;;;;;;;1.70;0.60;;;19.00;99.90;;;;;;5074394;28;20221;-83
2022/09/25 08:59:25;;;;;;;3.07;0.40;;;18.20;99.90;;;;;;5075129;28;20221;-83
2022/09/25 09:01:55;;;;;;;1.60;0.50;;;17.60;99.90;;;;;;5075215;28;20283;-84
2022/09/25 09:04:27;;;;;;;0.33;0.33;;;17.10;99.90;;;;;;5074543;28;20209;-83
2022/09/25 09:06:57;;;;;;;0.30;0.30;;;17.10;99.90;;;;;;5072696;28;20634;-84
2022/09/25 09:09:29;;;;;;;1.20;0.40;;;16.90;99.90;;;;;;5069778;28;20545;-83
2022/09/25 09:12:02;;;;;;;1.70;0.40;;;16.80;99.90;;;;;;5075567;28;20227;-83
2022/09/25 09:14:31;;;;;;;0.40;0.40;;;16.90;99.90;;;;;;5085736;28;20220;-85
2022/09/25 09:17:06;;;;;;;2.63;0.80;;;16.90;99.90;;;;;;5076837;28;20181;-84
2022/09/25 09:19:32;;;;;;;0.67;0.47;;;16.90;99.90;;;;;;5072433;28;20177;-85
2022/09/25 09:22:44;;;;;;;1.40;0.53;;;17.10;99.90;;;;;;5055194;28;20223;-84
2022/09/25 09:25:27;;;;;;;2.87;0.47;;;17.30;99.90;;;;;;5088579;28;20225;-85
2022/09/25 09:28:15;;;;;;;1.30;0.60;;;17.20;99.90;;;;;;5071174;28;20590;-83
2022/09/25 09:31:04;;;;;;;6.50;0.93;;;17.40;99.90;;;;;;5070577;28;20228;-82
2022/09/25 09:34:01;;;;;;;0.30;0.30;;;17.60;99.90;;;;;;5070429;28;20307;-83
2022/09/25 09:37:13;;;;;;;0.40;0.40;;;17.40;99.90;;;;;;5026910;28;20221;-84
2022/09/25 09:40:04;;;;;;;0.40;0.40;;;17.70;99.90;;;;;;5072956;28;20327;-84
2022/09/25 09:42:50;;;;;;;1.30;0.50;;;18.10;99.90;;;;;;5074014;28;20228;-83
2022/09/25 09:45:38;;;;;;;0.20;0.20;;;18.70;99.90;;;;;;5070668;28;20225;-83
2022/09/25 09:48:28;;;;;;;2.40;0.63;;;19.20;99.90;;;;;;5068802;28;20690;-84
2022/09/25 09:51:00;;;;;;;1.70;0.47;;;19.30;99.90;;;;;;5069079;28;20225;-82
2022/09/25 09:53:42;;;;;;;0.50;0.50;;;19.40;99.90;;;;;;5070846;28;20231;-83
2022/09/25 09:56:14;;;;;;;4.53;0.60;;;19.40;99.90;;;;;;5069360;28;20185;-86
2022/09/25 09:58:53;;;;;;;0.20;0.20;;;19.70;99.90;;;;;;5071321;28;20185;-83
2022/09/25 10:01:28;;;;;;;0.30;0.30;;;19.60;99.90;;;;;;5069632;28;20926;-82
2022/09/25 10:04:10;;;;;;;0.77;0.40;;;17.50;99.90;;;;;;5072657;28;20273;-83
2022/09/25 10:06:42;;;;;;;1.20;0.40;;;15.50;99.90;;;;;;5067279;28;20212;-85
2022/09/25 10:09:14;;;;;;;2.67;0.60;;;15.10;99.90;;;;;;5071574;28;20491;-85
2022/09/25 10:11:42;;;;;;;0.93;0.40;;;14.80;99.90;;;;;;5062236;28;20316;-82
2022/09/25 10:14:19;;;;;;;0.57;0.47;;;14.70;99.90;;;;;;5085684;28;20191;-83
2022/09/25 10:16:51;;;;;;;0.50;0.50;;;14.90;99.90;;;;;;5070330;28;20187;-85
2022/09/25 10:19:20;;;;;;;1.90;0.50;;;15.20;99.90;;;;;;5070936;28;20244;-83
2022/09/25 10:21:59;;;;;;;0.53;0.40;;;15.60;99.90;;;;;;5068498;28;20209;-84
2022/09/25 10:24:53;;;;;;;1.13;0.60;;;15.80;99.90;;;;;;5073276;28;20297;-83
2022/09/25 10:27:39;;;;;;;3.73;0.70;;;16.10;99.90;;;;;;5074054;28;20228;-85
2022/09/25 10:30:05;;;;;;;0.87;0.37;;;16.40;99.90;;;;;;5072300;28;20709;-83
2022/09/25 10:32:45;;;;;;;0.30;0.30;;;16.50;99.90;;;;;;5071848;28;20229;-83
2022/09/25 10:35:20;;;;;;;0.40;0.30;;;16.50;99.90;;;;;;5071291;28;20286;-82
2022/09/25 10:37:59;;;;;;;2.00;0.60;;;16.70;99.90;;;;;;5071721;28;20702;-82
2022/09/25 10:40:26;;;;;;;2.23;0.70;;;17.00;99.90;;;;;;5072581;28;20216;-82
2022/09/25 10:43:11;;;;;;;0.40;0.40;;;17.30;99.90;;;;;;5068274;28;20217;-83
2022/09/25 10:45:39;;;;;;;0.90;0.90;;;17.40;99.90;;;;;;5070834;28;20523;-83
2022/09/25 10:51:17;;;;;;;0.37;0.30;;;18.20;99.90;;;;;;5069833;28;20236;-83
2022/09/25 10:53:51;;;;;;;0.90;0.40;;;19.90;99.90;;;;;;5051771;28;20303;-85
2022/09/25 10:56:31;;;;;;;1.73;0.67;;;21.60;99.90;;;;;;5071911;28;20571;-83
2022/09/25 10:59:00;;;;;;;0.60;0.47;;;22.40;99.90;;;;;;5071431;28;20173;-84
2022/09/25 11:01:46;;;;;;;2.50;0.80;;;22.00;99.90;;;;;;5077706;28;20200;-84
2022/09/25 11:04:18;;;;;;;0.40;0.40;;;22.50;99.90;;;;;;5074033;28;20632;-83
2022/09/25 11:06:48;;;;;;;1.90;0.50;;;22.20;99.90;;;;;;5074773;28;20255;-83
2022/09/25 11:09:15;;;;;;;1.33;0.40;;;21.30;99.90;;;;;;5075122;28;20302;-84
2022/09/25 11:11:44;;;;;;;0.40;0.40;;;21.80;99.90;;;;;;5072521;28;20636;-84
2022/09/25 11:14:31;;;;;;;2.35;0.47;;;21.20;99.90;;;;;;5073669;28;20305;-84
2022/09/25 11:16:59;;;;;;;0.30;0.30;;;20.90;99.90;;;;;;5076665;28;20184;-83
2022/09/25 11:19:27;;;;;;;1.08;0.30;;;20.00;99.90;;;;;;5074807;28;20189;-85
2022/09/25 11:21:58;;;;;;;0.20;0.20;;;19.80;99.90;;;;;;5074944;28;20241;-83
2022/09/25 11:24:35;;;;;;;0.60;0.43;;;19.70;99.90;;;;;;5074910;28;20226;-86
2022/09/25 11:27:13;;;;;;;0.30;0.30;;;19.60;99.90;;;;;;5074503;28;20293;-85
2022/09/25 11:30:00;;;;;;;0.95;0.60;;;19.50;99.90;;;;;;5073273;28;20226;-84
2022/09/25 11:32:52;;;;;;;0.40;0.40;;;19.80;99.90;;;;;;5074620;28;20479;-84
2022/09/25 11:35:46;;;;;;;0.75;0.75;;;20.00;99.90;;;;;;5075772;28;20212;-85
2022/09/25 11:38:14;;;;;;;1.70;0.67;;;19.10;99.90;;;;;;5074115;28;20220;-87
2022/09/25 11:41:13;;;;;;;3.30;0.40;;;18.50;99.90;;;;;;5073620;28;20287;-85
2022/09/25 11:43:56;;;;;;;1.70;0.50;;;18.90;99.90;;;;;;5072459;28;20208;-86
2022/09/25 11:46:58;;;;;;;0.43;0.43;;;18.80;99.90;;;;;;5074384;28;20794;-85
2022/09/25 11:49:34;;;;;;;2.80;1.23;;;19.20;99.90;;;;;;5065278;28;20649;-86
2022/09/25 11:52:18;;;;;;;0.23;0.23;;;19.10;99.90;;;;;;5076528;28;20255;-86
2022/09/25 11:54:50;;;;;;;1.67;0.40;;;18.80;99.90;;;;;;5074343;28;20212;-85
2022/09/25 11:57:48;;;;;;;0.70;0.70;;;19.10;99.90;;;;;;5074194;28;20224;-85
2022/09/25 12:00:40;;;;;;;0.50;0.40;;;19.30;99.90;;;;;;5075404;28;20219;-86
2022/09/25 12:03:31;;;;;;;0.80;0.60;;;19.00;99.90;;;;;;5071420;28;20304;-82
2022/09/25 12:06:14;;;;;;;0.40;0.40;;;19.30;99.90;;;;;;5072962;28;20221;-82
2022/09/25 12:09:05;;;;;;;0.77;0.63;;;19.30;99.90;;;;;;5068495;28;20241;-82
2022/09/25 12:11:44;;;;;;;0.30;0.30;;;19.40;99.90;;;;;;5072161;28;20224;-83
2022/09/25 12:14:22;;;;;;;0.50;0.40;;;18.90;99.90;;;;;;5070297;28;20599;-81
2022/09/25 12:17:06;;;;;;;0.83;0.30;;;17.90;99.90;;;;;;5086918;28;20240;-81
2022/09/25 12:19:56;;;;;;;0.60;0.40;;;17.20;99.90;;;;;;5071332;28;20216;-82
2022/09/25 12:23:01;;;;;;;6.57;0.70;;;17.20;99.90;;;;;;5069760;28;20592;-82
2022/09/25 12:25:59;;;;;;;0.90;0.40;;;18.10;99.90;;;;;;5067516;28;20208;-81
2022/09/25 12:29:14;;;;;;;3.40;0.80;;;17.90;99.90;;;;;;5074294;28;20217;-80
2022/09/25 12:31:50;;;;;;;0.77;0.50;;;17.80;99.90;;;;;;5066572;28;20240;-80
2022/09/25 12:34:36;;;;;;;1.07;0.30;;;17.90;99.90;;;;;;5071139;28;20762;-80
2022/09/25 12:37:11;;;;;;;2.57;0.47;;;17.90;99.90;;;;;;5069781;28;20255;-80
2022/09/25 12:39:43;;;;;;;0.57;0.37;;;17.80;99.90;;;;;;5070789;28;20223;-83
2022/09/25 12:42:16;;;;;;;0.80;0.40;;;17.30;99.90;;;;;;5085210;28;20213;-82
2022/09/25 12:44:57;;;;;;;2.90;0.70;;;16.90;99.90;;;;;;5069170;28;20217;-82
2022/09/25 12:47:32;;;;;;;0.40;0.40;;;17.20;99.90;;;;;;5067935;28;20220;-82
2022/09/25 12:50:08;;;;;;;0.27;0.27;;;17.60;99.90;;;;;;5071891;28;20209;-82
2022/09/25 12:52:41;;;;;;;0.30;0.30;;;17.60;99.90;;;;;;5068641;28;20180;-81
2022/09/25 12:55:20;;;;;;;0.30;0.30;;;17.70;99.90;;;;;;5072954;28;20377;-83
2022/09/25 12:58:16;;;;;;;0.30;0.30;;;17.90;99.90;;;;;;5073174;28;20278;-82
2022/09/25 13:00:46;;;;;;;0.30;0.30;;;17.70;99.90;;;;;;5035464;28;20717;-81
2022/09/25 13:03:37;;;;;;;0.30;0.30;;;17.60;99.90;;;;;;5070279;28;20266;-81
2022/09/25 13:06:10;;;;;;;0.60;0.20;;;17.80;99.90;;;;;;5060664;28;20228;-80
2022/09/25 13:08:46;;;;;;;0.43;0.30;;;17.70;99.90;;;;;;5067808;28;20240;-81
2022/09/25 13:11:23;;;;;;;0.30;0.30;;;17.60;99.90;;;;;;5072556;28;20652;-80
2022/09/25 13:13:52;;;;;;;1.80;0.67;;;17.30;99.90;;;;;;5068575;28;20592;-82
2022/09/25 13:16:19;;;;;;;1.30;0.27;;;17.60;99.90;;;;;;5069727;28;20236;-81
2022/09/25 13:19:08;;;;;;;0.20;0.20;;;17.60;99.90;;;;;;5070704;28;20254;-81
2022/09/25 13:21:41;;;;;;;3.53;0.50;;;17.80;99.90;;;;;;5069539;28;20313;-82
2022/09/25 13:24:13;;;;;;;0.33;0.27;;;17.80;99.90;;;;;;5070960;28;20366;-80
2022/09/25 13:27:09;;;;;;;0.20;0.20;;;17.80;99.90;;;;;;5070689;28;20216;-81
2022/09/25 13:29:37;;;;;;;0.93;0.60;;;18.00;99.90;;;;;;5070221;28;20601;-80
2022/09/25 13:32:19;;;;;;;1.90;0.40;;;18.20;99.90;;;;;;5071886;28;20200;-82